createdAt,value
2023-01-11T00:01:16.065Z,64.580195842357
2023-01-11T00:04:16.863Z,64.32913923678696
2023-01-11T00:07:16.477Z,64.15179269750621
2023-01-11T00:11:17.420Z,64.04232732029588
2023-01-11T00:14:16.542Z,63.99561723508475
2023-01-11T00:17:16.346Z,64.06083721722742
2023-01-11T00:21:16.669Z,63.40968988744412
2023-01-11T00:24:17.030Z,63.335682472279274
2023-01-11T00:27:16.959Z,63.40642679139102
2023-01-11T00:31:16.806Z,63.27942177186706
2023-01-11T00:34:18.162Z,63.529200106658955
2023-01-11T00:37:16.946Z,63.452519961856794
2023-01-11T00:51:16.465Z,62.4951276336811
2023-01-11T00:54:16.955Z,62.514624231159836
2023-01-11T00:57:16.639Z,63.13094318935492
2023-01-11T01:01:16.503Z,63.1432557031982
2023-01-11T01:04:16.794Z,62.30723532271356
2023-01-11T01:07:16.753Z,62.46890088522339
2023-01-11T01:11:16.824Z,63.176909666673204
2023-01-11T01:14:33.790Z,63.28477772284996
2023-01-11T01:17:17.211Z,63.235100051369166
2023-01-11T01:21:16.431Z,63.56365625623829
2023-01-11T01:24:17.234Z,63.40241535199559
2023-01-11T01:27:18.276Z,63.48222278171745
2023-01-11T01:31:16.561Z,62.7845695036635
2023-01-11T01:34:16.922Z,62.16709035194096
2023-01-11T01:37:16.636Z,61.77054458131404
2023-01-11T01:41:16.166Z,62.06059877855268
2023-01-11T01:45:21.068Z,62.446819269488614
2023-01-11T01:47:16.996Z,62.29301335503752
2023-01-11T01:51:22.088Z,61.98327832349544
2023-01-11T01:54:21.955Z,62.19243516252589
2023-01-11T01:57:21.725Z,62.03806162049691
2023-01-11T02:01:49.406Z,61.21598988660372
2023-01-11T02:04:22.479Z,61.30960689469335
2023-01-11T02:07:19.103Z,61.11756602249517
2023-01-11T02:11:30.624Z,60.947957598952634
2023-01-11T02:14:19.484Z,60.602575291771736
2023-01-11T02:17:16.942Z,61.47299065507229
2023-01-11T02:21:24.720Z,61.8095286560975
2023-01-11T02:24:37.872Z,61.56744694338789
2023-01-11T02:27:28.239Z,61.36255855705608
2023-01-11T02:31:28.179Z,61.016815466673755
2023-01-11T02:34:31.393Z,60.48674944504806
2023-01-11T02:37:28.267Z,60.20105961978476
2023-01-11T02:41:22.268Z,60.59899321012824
2023-01-11T02:45:35.902Z,61.195225634286224
2023-01-11T02:47:28.075Z,61.31413280885134
2023-01-11T02:51:22.456Z,60.7564012300699
2023-01-11T02:54:22.126Z,60.95521844024792
2023-01-11T02:57:17.026Z,61.33582759388646
2023-01-11T03:01:17.985Z,60.942519126482296
2023-01-11T03:04:27.465Z,61.01706495283735
2023-01-11T03:07:31.710Z,61.6437656316531
2023-01-11T03:13:03.231Z,61.53462008620494
2023-01-11T03:14:26.723Z,60.93086609397014
2023-01-11T03:17:30.350Z,61.001859455955575
2023-01-11T03:21:27.789Z,60.56210572078996
2023-01-11T03:24:28.120Z,60.55579104431017
2023-01-11T03:27:21.736Z,60.54384582546
2023-01-11T03:31:22.163Z,60.24836627497116
2023-01-11T03:34:22.911Z,60.40035734645964
2023-01-11T03:37:22.043Z,60.36046965511742
2023-01-11T03:41:22.684Z,60.415496237106076
2023-01-11T03:44:17.867Z,60.38001960319243
2023-01-11T03:47:18.061Z,60.19388756159028
2023-01-11T03:51:21.632Z,60.17235980094376
2023-01-11T03:54:21.690Z,59.94455102927533
2023-01-11T03:57:20.703Z,59.640487629190716
2023-01-11T04:01:16.736Z,59.360848646385755
2023-01-11T04:04:17.088Z,59.00779806508016
2023-01-11T04:07:17.053Z,58.539488422304025
2023-01-11T04:11:16.163Z,58.62281596742706
2023-01-11T04:14:16.682Z,59.096299400140246
2023-01-11T04:17:16.904Z,59.140288875899415
2023-01-11T04:21:16.055Z,59.00350040949046
2023-01-11T04:24:19.152Z,59.12361357060029
2023-01-11T04:27:16.761Z,59.096630133492035
2023-01-11T04:31:16.278Z,58.766229714307364
2023-01-11T04:34:16.701Z,59.64227502016257
2023-01-11T04:37:17.016Z,60.151953063659256
2023-01-11T04:42:21.406Z,60.07111657621527
2023-01-11T04:44:16.449Z,59.66257328384509
2023-01-11T04:47:18.561Z,59.79823963146123
2023-01-11T04:51:15.742Z,59.92684548750437
2023-01-11T04:54:16.293Z,59.91893939020091
2023-01-11T04:57:16.415Z,59.912646496086495
2023-01-11T05:01:18.149Z,59.48654990007014
2023-01-11T05:04:16.238Z,59.43189093688601
2023-01-11T05:07:16.094Z,59.61019625181636
2023-01-11T05:11:16.895Z,59.7318243016958
2023-01-11T05:14:17.171Z,59.834737638912166
2023-01-11T05:17:16.835Z,59.535171930509435
2023-01-11T05:21:17.628Z,59.34241237430965
2023-01-11T05:24:16.651Z,58.86243093479946
2023-01-11T05:27:16.320Z,58.502358557956946
2023-01-11T05:31:16.792Z,58.823389815940224
2023-01-11T05:34:17.054Z,58.21549120616016
2023-01-11T05:37:16.263Z,57.78694754496872
2023-01-11T05:41:18.739Z,57.9643530109048
2023-01-11T05:51:17.644Z,58.811780457471
2023-01-11T05:54:19.985Z,58.91722200998387
2023-01-11T05:57:16.844Z,58.68542933505583
2023-01-11T06:01:19.450Z,58.5567050533952
2023-01-11T06:04:17.378Z,58.51080832612108
2023-01-11T06:07:17.419Z,58.27244009798567
2023-01-11T06:11:16.521Z,58.89189734610338
2023-01-11T06:14:16.867Z,59.48596724033001
2023-01-11T06:17:16.908Z,59.72801940276533
2023-01-11T06:21:18.212Z,59.72798836117896
2023-01-11T06:24:17.269Z,59.726932864470676
2023-01-11T06:27:17.315Z,59.94350602226914
2023-01-11T06:31:17.911Z,59.98660462924093
2023-01-11T06:34:17.033Z,60.213731908636625
2023-01-11T06:37:16.917Z,60.00755211192744
2023-01-11T06:41:16.188Z,60.123522364269135
2023-01-11T06:44:16.603Z,59.88901108899994
2023-01-11T06:47:16.720Z,59.945164411296325
2023-01-11T06:51:16.347Z,59.680814273561246
2023-01-11T06:54:22.183Z,59.89430742343005
2023-01-11T06:57:16.737Z,59.02003169942047
2023-01-11T07:01:17.786Z,59.40594369401279
2023-01-11T07:04:19.006Z,60.20186118255065
2023-01-11T07:07:17.028Z,60.78025703787189
2023-01-11T07:11:16.643Z,61.055986079766264
2023-01-11T07:14:20.279Z,61.24998666786958
2023-01-11T07:17:16.930Z,61.40238793004743
2023-01-11T07:21:15.980Z,60.72647480634708
2023-01-11T07:24:16.572Z,60.356094797377565
2023-01-11T07:27:16.356Z,60.79073238786483
2023-01-11T07:31:16.305Z,60.862421138884784
2023-01-11T07:34:16.726Z,61.37242496330048
2023-01-11T07:37:28.516Z,61.25865691216151
2023-01-11T07:51:20.670Z,60.854386478947696
2023-01-11T07:54:16.755Z,61.026243370406895
2023-01-11T07:57:16.686Z,61.025311510637984
2023-01-11T08:01:16.839Z,61.141039601014036
2023-01-11T08:04:17.461Z,60.993970948127135
2023-01-11T08:07:17.218Z,60.23348862106691
2023-01-11T08:21:16.107Z,58.77521673432281
2023-01-11T08:24:16.742Z,57.60397057083344
2023-01-11T08:27:16.394Z,60.13711091452334
2023-01-11T08:31:17.244Z,63.53560328382896
2023-01-11T08:34:17.159Z,64.83206873258997
2023-01-11T08:37:17.360Z,66.6051971279926
2023-01-11T08:41:16.339Z,67.82952144522861
2023-01-11T08:44:29.064Z,67.70948481784946
2023-01-11T08:47:16.747Z,66.31166120998927
2023-01-11T08:51:16.567Z,62.39099752907366
2023-01-11T08:54:18.095Z,60.0332182678689
2023-01-11T08:57:16.864Z,62.91787465092204
2023-01-11T09:01:16.125Z,64.2760491545745
2023-01-11T09:04:24.914Z,64.56254090490702
2023-01-11T09:07:16.534Z,65.54522327517931
2023-01-11T09:11:54.960Z,65.20809531201725
2023-01-11T09:14:16.667Z,64.93973113268517
2023-01-11T09:17:16.443Z,63.69857722698601
2023-01-11T09:21:16.062Z,60.8007827823172
2023-01-11T09:24:16.530Z,55.63072773528725
2023-01-11T09:27:16.914Z,53.518386197612855
2023-01-11T09:31:16.526Z,54.78629886727079
2023-01-11T09:34:16.915Z,57.4265287469496
2023-01-11T09:37:16.940Z,57.955689383229746
2023-01-11T09:41:34.212Z,52.583925968152435
2023-01-11T09:44:20.793Z,50.878990036958456
2023-01-11T09:47:24.295Z,52.493819444106485
2023-01-11T09:51:16.532Z,51.35933927444891
2023-01-11T09:54:23.505Z,50.76761401009266
2023-01-11T09:57:28.875Z,52.270921012596894
2023-01-11T10:01:21.742Z,52.90637671983384
2023-01-11T10:04:42.558Z,54.12571228160221
2023-01-11T10:07:34.855Z,52.70899014656472
2023-01-11T10:18:31.227Z,54.59750991605517
2023-01-11T10:31:30.138Z,50.772216528411214
2023-01-11T10:34:42.165Z,48.219062008267706
2023-01-11T10:37:36.920Z,49.56080839456889
2023-01-11T10:41:25.058Z,47.757110974499504
2023-01-11T10:44:24.967Z,47.0009719619102
2023-01-11T10:47:26.151Z,47.98439043945519
2023-01-11T10:51:23.089Z,48.49163316649207
2023-01-11T10:54:25.436Z,48.24651634748434
2023-01-11T10:57:30.230Z,46.43065644555632
2023-01-11T11:01:28.937Z,47.27478000196082
2023-01-11T11:04:29.973Z,47.001117290719954
2023-01-11T11:07:25.192Z,45.18124989875856
2023-01-11T11:11:21.675Z,44.98269753676863
2023-01-11T11:14:27.271Z,44.085884483438306
2023-01-11T11:17:24.452Z,43.27347549143684
2023-01-11T11:21:21.938Z,41.2256471299379
2023-01-11T11:24:24.315Z,40.75636480710459
2023-01-11T11:27:24.772Z,41.4817710972496
2023-01-11T11:31:16.999Z,40.168406085544234
2023-01-11T11:34:20.009Z,39.51099526345438
2023-01-11T11:37:22.999Z,40.032676826623835
2023-01-11T11:41:17.701Z,40.248643208851945
2023-01-11T11:44:20.561Z,39.55688804123737
2023-01-11T11:47:17.511Z,39.84658348745465
2023-01-11T11:51:22.471Z,39.426693927514805
2023-01-11T11:54:22.264Z,40.36345875975546
2023-01-11T11:57:23.521Z,40.93742105400924
2023-01-11T12:01:25.491Z,41.85245780017899
2023-01-11T12:04:20.337Z,42.3247387852869
2023-01-11T12:07:21.295Z,41.67238364497222
2023-01-11T12:11:21.637Z,41.78701787368493
2023-01-11T12:14:20.508Z,40.519466239754806
2023-01-11T12:17:23.788Z,38.17590260482922
2023-01-11T12:21:20.165Z,37.794561748873186
2023-01-11T12:24:18.441Z,38.04509539017032
2023-01-11T12:27:33.126Z,38.30687399179948
2023-01-11T12:31:28.163Z,41.31551870153749
2023-01-11T12:34:33.095Z,41.895798752509606
2023-01-11T12:37:30.028Z,41.86117561629885
2023-01-11T12:42:27.272Z,40.51925538962683
2023-01-11T12:44:33.547Z,40.55341378134502
2023-01-11T12:47:41.218Z,42.58298987352698
2023-01-11T12:51:34.052Z,40.85472065241979
2023-01-11T12:54:36.267Z,41.15572762844648
2023-01-11T12:57:26.142Z,41.036373446181216
2023-01-11T13:01:29.776Z,41.724276724765
2023-01-11T13:04:43.458Z,42.55420520606445
2023-01-11T13:07:32.238Z,43.01980037399522
2023-01-11T13:11:47.663Z,42.62210313462816
2023-01-11T13:14:34.156Z,42.456943191031385
2023-01-11T13:17:33.489Z,43.27511508685481
2023-01-11T13:21:27.831Z,44.429225666189915
2023-01-11T13:24:22.115Z,44.0259656912178
2023-01-11T13:27:21.475Z,44.07708761929395
2023-01-11T13:31:18.145Z,44.42943909776994
2023-01-11T13:34:24.891Z,44.78244092867848
2023-01-11T13:37:23.434Z,44.56721870903437
2023-01-11T13:41:20.223Z,44.03850926457252
2023-01-11T13:44:23.791Z,44.680985931809566
2023-01-11T13:47:26.577Z,43.890169320707884
2023-01-11T13:51:30.709Z,44.310184758306676
2023-01-11T13:54:24.935Z,44.105289928278886
2023-01-11T13:57:33.191Z,45.20015834493433
2023-01-11T14:01:23.350Z,45.982850523663764
2023-01-11T14:04:26.876Z,46.87438835617898
2023-01-11T14:07:35.417Z,46.93466701794273
2023-01-11T14:11:25.739Z,47.381255343645456
2023-01-11T14:14:34.492Z,47.6694709796796
2023-01-11T14:17:29.708Z,48.27967115215813
2023-01-11T14:21:22.876Z,48.79456595838832
2023-01-11T14:24:20.101Z,48.28316152649201
2023-01-11T14:27:37.154Z,49.18680172350688
2023-01-11T14:31:34.825Z,49.469429040328464
2023-01-11T14:35:08.273Z,49.88823018964802
2023-01-11T14:37:36.562Z,49.009678029346695
2023-01-11T14:42:07.035Z,49.27961712296138
2023-01-11T14:44:32.489Z,50.16169298095146
2023-01-11T14:47:32.760Z,49.93918400247707
2023-01-11T14:51:33.578Z,50.65765914884895
2023-01-11T14:54:22.693Z,50.35045514389008
2023-01-11T14:58:25.769Z,50.298766697162236
2023-01-11T15:01:16.413Z,51.0039617754803
2023-01-11T15:04:21.111Z,51.18198546597749
2023-01-11T15:07:23.247Z,51.25212796428444
2023-01-11T15:11:31.678Z,51.53424734954844
2023-01-11T15:14:29.604Z,52.28823250873335
2023-01-11T15:18:24.548Z,51.06047025790902
2023-01-11T15:21:21.011Z,50.496255943930386
2023-01-11T15:24:23.933Z,50.631082001972466
2023-01-11T15:27:24.580Z,51.249916892483924
2023-01-11T15:31:36.355Z,51.729612400828145
2023-01-11T15:34:22.718Z,51.568851099415966
2023-01-11T15:37:27.910Z,51.25816006518157
2023-01-11T15:43:53.689Z,51.20833688208386
2023-01-11T15:44:33.568Z,50.715447646267556
2023-01-11T15:47:33.305Z,51.095385793309546
2023-01-11T15:51:34.806Z,51.57802248917547
2023-01-11T15:54:46.687Z,51.14632735859865
2023-01-11T15:57:33.524Z,51.17167234677944
2023-01-11T16:01:23.022Z,50.806538358819544
2023-01-11T16:04:26.620Z,50.29108651964612
2023-01-11T16:07:27.587Z,50.52420483896008
2023-01-11T16:11:26.061Z,51.11716721928326
2023-01-11T16:14:37.567Z,50.65305190513261
2023-01-11T16:17:21.496Z,50.17434046381164
2023-01-11T16:21:23.448Z,50.77939323230055
2023-01-11T16:24:20.696Z,50.7655054338849
2023-01-11T16:27:22.791Z,51.35861112456224
2023-01-11T16:31:16.756Z,52.343855904102256
2023-01-11T16:34:18.210Z,52.70577878499374
2023-01-11T16:37:23.152Z,53.21492227426867
2023-01-11T16:41:17.584Z,52.454474758709694
2023-01-11T16:44:26.638Z,52.237861863926874
2023-01-11T16:47:18.971Z,51.60753995437783
2023-01-11T16:51:19.923Z,50.74171564894007
2023-01-11T16:54:37.638Z,50.05993154213094
2023-01-11T16:57:25.014Z,50.117248990257224
2023-01-11T17:01:53.344Z,50.00823159392124
2023-01-11T17:04:31.122Z,50.35933843908394
2023-01-11T17:07:23.795Z,51.137663842886965
2023-01-11T17:11:29.024Z,51.36381094406525
2023-01-11T17:14:54.196Z,51.47388305607249
2023-01-11T17:17:39.911Z,51.4126124514717
2023-01-11T17:21:23.535Z,51.018249171817416
2023-01-11T17:31:35.112Z,51.82172208313376
2023-01-11T17:34:26.749Z,51.77996212902261
2023-01-11T17:37:20.931Z,51.34119208926004
2023-01-11T17:45:20.795Z,50.99615890978255
2023-01-11T17:47:18.805Z,49.58120022909826
2023-01-11T17:51:24.563Z,48.8859140549835
2023-01-11T17:54:23.996Z,49.2503934507523
2023-01-11T17:57:20.195Z,49.06053833188027
2023-01-11T18:01:23.139Z,49.138315607992446
2023-01-11T18:04:32.396Z,50.133997916431
2023-01-11T18:07:19.257Z,51.79735340794413
2023-01-11T18:11:23.289Z,52.275270657612324
2023-01-11T18:14:30.192Z,51.60576021039154
2023-01-11T18:17:45.673Z,50.96121523690421
2023-01-11T18:21:58.948Z,50.33533507691819
2023-01-11T18:24:35.607Z,49.68341823355316
2023-01-11T18:27:29.498Z,49.64339404970711
2023-01-11T18:31:23.097Z,49.22348053748213
2023-01-11T18:34:36.865Z,48.913829081555456
2023-01-11T18:37:21.409Z,47.779179368940135
2023-01-11T18:42:28.115Z,47.51110374328423
2023-01-11T18:44:29.822Z,48.15735329664848
2023-01-11T18:47:23.690Z,49.110162290233355
2023-01-11T18:51:20.928Z,49.24531241455729
2023-01-11T18:54:36.900Z,49.02516507170809
2023-01-11T18:57:17.131Z,49.2461093096247
2023-01-11T19:01:17.509Z,48.99362247808039
2023-01-11T19:04:17.199Z,48.06080659598845
2023-01-11T19:07:18.187Z,47.58621899149962
2023-01-11T19:11:17.422Z,47.29035666134926
2023-01-11T19:14:16.847Z,47.57235521683652
2023-01-11T19:17:16.869Z,47.38823213675095
2023-01-11T19:21:16.930Z,47.10954056749192
2023-01-11T19:24:17.398Z,47.197730813346915
2023-01-11T19:27:17.359Z,46.45553943071981
2023-01-11T19:31:17.244Z,46.37300054219694
2023-01-11T19:34:18.207Z,47.11613815095058
2023-01-11T19:37:17.552Z,48.05323694884026
2023-01-11T19:41:17.118Z,48.04615643028529
2023-01-11T19:44:17.838Z,48.02987649688301
2023-01-11T19:47:17.064Z,47.58689610674263
2023-01-11T19:51:16.414Z,47.21935927842862
2023-01-11T19:54:17.646Z,47.51382151244678
2023-01-11T19:57:19.956Z,48.12062030107631
2023-01-11T20:01:16.816Z,48.83296402028447
2023-01-11T20:04:16.939Z,50.1578283963419
2023-01-11T20:07:17.048Z,50.98600935458712
2023-01-11T20:11:18.460Z,50.19459309737767
2023-01-11T20:14:17.210Z,49.662415917664326
2023-01-11T20:17:21.964Z,49.922836787735584
2023-01-11T20:21:18.690Z,49.302878429313374
2023-01-11T20:24:18.353Z,49.15076785203391
2023-01-11T20:27:17.577Z,48.39152528919011
2023-01-11T20:31:17.692Z,48.42374436020095
2023-01-11T20:34:19.210Z,48.6770921073928
2023-01-11T20:37:17.772Z,48.683387882576305
2023-01-11T20:41:47.066Z,48.81052637100868
2023-01-11T20:44:20.306Z,48.99970471767999
2023-01-11T20:47:16.830Z,48.866777407221655
2023-01-11T20:51:16.631Z,48.686689886950596
2023-01-11T20:54:17.394Z,49.49630936147924
2023-01-11T20:57:17.150Z,50.523847441208034
2023-01-11T21:01:18.033Z,50.64599389691112
2023-01-11T21:04:18.179Z,50.824716274666855
2023-01-11T21:07:17.244Z,51.12157541414204
2023-01-11T21:11:17.036Z,51.69563661309917
2023-01-11T21:14:17.344Z,51.34335946383943
2023-01-11T21:17:17.329Z,50.52427427855074
2023-01-11T21:21:18.891Z,50.17977013292337
2023-01-11T21:24:16.529Z,49.894482495194005
2023-01-11T21:27:16.513Z,49.582465521302844
2023-01-11T21:31:19.249Z,49.61023912358494
2023-01-11T21:34:17.319Z,50.05368320532953
2023-01-11T21:37:17.247Z,50.13457516848134
2023-01-11T21:41:18.959Z,50.14699281254243
2023-01-11T21:44:18.075Z,50.63998862837576
2023-01-11T21:47:18.404Z,51.596831565148825
2023-01-11T21:51:17.077Z,51.37145254494971
2023-01-11T21:54:19.469Z,51.3568995345566
2023-01-11T21:57:17.261Z,51.22588042210479
2023-01-11T22:01:18.014Z,50.79287304655385
2023-01-11T22:04:19.691Z,50.59774706599204
2023-01-11T22:07:17.395Z,50.34700793123582
2023-01-11T22:11:17.434Z,49.914504764344215
2023-01-11T22:14:17.066Z,50.06920819589334
2023-01-11T22:17:17.100Z,50.22430977091212
2023-01-11T22:21:18.876Z,50.32379761242053
2023-01-11T22:24:18.177Z,50.53385116400206
2023-01-11T22:27:17.040Z,50.7668819799125
2023-01-11T22:31:16.308Z,49.93458462644794
2023-01-11T22:34:17.444Z,49.267524795247404
2023-01-11T22:37:16.739Z,49.79061851625253
2023-01-11T22:41:16.269Z,50.0585396509967
2023-01-11T22:44:17.264Z,50.16873204240936
2023-01-11T22:47:16.568Z,50.56459031817271
2023-01-11T22:51:18.111Z,50.61455859444361
2023-01-11T22:54:16.707Z,50.62619595045632
2023-01-11T22:57:16.501Z,50.979085858751965
2023-01-11T23:01:18.840Z,50.14806120026903
2023-01-11T23:04:16.368Z,50.36865704525673
2023-01-11T23:07:16.323Z,50.706019929971035
2023-01-11T23:13:52.839Z,50.97850057393445
2023-01-11T23:14:20.254Z,51.37831360745615
2023-01-11T23:17:19.347Z,50.99307794376271
2023-01-11T23:21:16.576Z,51.61939029582458
2023-01-11T23:24:17.293Z,51.730332846972274
2023-01-11T23:27:16.788Z,51.37551492582306
2023-01-11T23:31:19.408Z,50.95325824204398
2023-01-11T23:34:17.226Z,53.205005591526884
2023-01-11T23:37:17.067Z,54.176547926826686
2023-01-11T23:51:16.740Z,52.72451916089578
2023-01-11T23:54:17.060Z,52.43096647654507
2023-01-11T23:57:19.503Z,51.81472607629472
